Airfield :
LOGIN :

Register | Disclaimer

   EN    FR    IT 

 










Legend :    VFR   Marginal VFR   IFR   Intensive IFR   Very Intensive IFR
Visi :
Ceiling :
>= 8 km
>= 3000ft
5 to 8 km
1000 to 3000 ft
1500m to 5 km
500 to 1000 ft
800 to 1500m
200 to 500 ft
< 800m
< 200 ft
Symbols :   Thunderstorms  Fog  Heavy snow  Heavy precipitations  Wind > 20 kt
SIGMETs :     Misc.  Thunderstorms  Icing  Turbulence  Mountain Waves  Volcanic Ashes







- Airport Elevation : 364 ft
- IATA code : FRA


EDDF - Frankfurt Int.

CURRENT METAR :
  • 211020Z 21016KT 9999 FEW032 SCT100 BKN150 23/12 Q1009 BECMG 20015G25KT

EXPIRED METARs :
  • 210950Z 21011KT 9999 FEW042 BKN100 23/14 Q1009 BECMG 20015G25KT
  • 210920Z 19010KT CAVOK 22/14 Q1009 BECMG 20015G25KT
  • 210850Z 20011KT CAVOK 22/14 Q1009 NOSIG
  • 210820Z VRB08KT CAVOK 21/14 Q1009 NOSIG
  • 210750Z 19007KT 9999 FEW040 SCT050 BKN300 19/14 Q1009 NOSIG

TAF TAF EDDF
Valid from the 21 at 06:00 until the 22 at 12:00 UTC


210500Z 2106/2212 17003KT CAVOK
BECMG 2106/2108 21008KT
BECMG 2108/2111 24015G25KT
TEMPO 2111/2116 25020G30KT RA BKN035
BECMG 2116/2119 25010KT
No reported NOTAMs for that airfield.



MET'MAP, your aeronautical weather chart ! - Copyright ORBIFLY December 2007 - Disclaimer

ORBIFLY MET'MAP TEAM :

Programming & Development : Alexandra Zaïnal
Concept & Development : Baudouin d'Aumeries
Co-Development & Prog : Marc-Olivier Méhu
Technical & hardware support : Manuel Goepfert

Contact : metmap@orbifly.com




SOURCES & CREDITS :

   NOAA